sensor_id;sensor_type;location;lat;lon;timestamp;pressure;altitude;pressure_sealevel;temperature;humidity
13241;BME280;6687;47.790;7.322;2023-01-28T06:12:06;99612.78;;;1.04;87.63
13241;BME280;6687;47.790;7.322;2023-01-28T06:14:33;99604.47;;;1.08;87.79
13241;BME280;6687;47.790;7.322;2023-01-28T06:17:00;99603.69;;;0.92;87.89
13241;BME280;6687;47.790;7.322;2023-01-28T06:19:27;99612.53;;;0.83;88.16
13241;BME280;6687;47.790;7.322;2023-01-28T06:21:53;99616.28;;;1.06;88.29
13241;BME280;6687;47.790;7.322;2023-01-28T06:24:20;99613.84;;;1.09;87.87
13241;BME280;6687;47.790;7.322;2023-01-28T06:26:47;99615.88;;;0.82;87.99
13241;BME280;6687;47.790;7.322;2023-01-28T06:29:15;99613.06;;;1.10;87.85
13241;BME280;6687;47.790;7.322;2023-01-28T06:31:42;99619.31;;;0.98;87.56
13241;BME280;6687;47.790;7.322;2023-01-28T06:34:09;99635.66;;;1.02;87.31
13241;BME280;6687;47.790;7.322;2023-01-28T06:36:36;99632.06;;;0.98;87.76
13241;BME280;6687;47.790;7.322;2023-01-28T06:39:03;99629.69;;;1.02;87.59
13241;BME280;6687;47.790;7.322;2023-01-28T06:41:30;99626.34;;;1.21;87.59
13241;BME280;6687;47.790;7.322;2023-01-28T06:43:57;99630.03;;;1.09;86.96
13241;BME280;6687;47.790;7.322;2023-01-28T06:46:25;99636.19;;;1.13;87.46
13241;BME280;6687;47.790;7.322;2023-01-28T06:48:52;99632.66;;;1.11;87.24
13241;BME280;6687;47.790;7.322;2023-01-28T06:51:18;99638.91;;;1.16;87.29
13241;BME280;6687;47.790;7.322;2023-01-28T06:53:45;99636.59;;;1.04;87.33
13241;BME280;6687;47.790;7.322;2023-01-28T06:56:12;99641.59;;;1.19;87.45
13241;BME280;6687;47.790;7.322;2023-01-28T06:58:38;99643.84;;;1.13;87.34
13241;BME280;6687;47.790;7.322;2023-01-28T07:01:05;99642.00;;;1.10;87.54
13241;BME280;6687;47.790;7.322;2023-01-28T07:03:33;99650.44;;;1.09;87.52
13241;BME280;6687;47.790;7.322;2023-01-28T07:06:01;99652.13;;;1.09;87.26
13241;BME280;6687;47.790;7.322;2023-01-28T07:08:28;99648.72;;;1.08;87.29
13241;BME280;6687;47.790;7.322;2023-01-28T07:10:55;99656.69;;;1.14;88.25
13241;BME280;6687;47.790;7.322;2023-01-28T07:13:21;99648.84;;;1.11;87.99
13241;BME280;6687;47.790;7.322;2023-01-28T07:15:48;99654.81;;;1.28;87.72
13241;BME280;6687;47.790;7.322;2023-01-28T07:18:15;99651.91;;;1.04;87.89
13241;BME280;6687;47.790;7.322;2023-01-28T07:20:43;99655.81;;;1.14;88.35
13241;BME280;6687;47.790;7.322;2023-01-28T07:23:10;99658.88;;;1.25;88.43
13241;BME280;6687;47.790;7.322;2023-01-28T07:25:37;99652.91;;;1.24;87.66
13241;BME280;6687;47.790;7.322;2023-01-28T07:28:04;99662.72;;;1.16;87.96
13241;BME280;6687;47.790;7.322;2023-01-28T07:30:31;99668.09;;;1.05;88.87
13241;BME280;6687;47.790;7.322;2023-01-28T07:32:58;99659.91;;;1.28;88.20
13241;BME280;6687;47.790;7.322;2023-01-28T07:35:25;99664.72;;;1.22;88.29
13241;BME280;6687;47.790;7.322;2023-01-28T07:37:55;99662.69;;;1.33;88.20
13241;BME280;6687;47.790;7.322;2023-01-28T07:40:23;99669.25;;;1.11;88.80
13241;BME280;6687;47.790;7.322;2023-01-28T07:42:50;99675.78;;;1.23;88.29
13241;BME280;6687;47.790;7.322;2023-01-28T07:45:17;99673.06;;;1.02;88.87
13241;BME280;6687;47.790;7.322;2023-01-28T07:47:43;99672.28;;;1.21;88.95
13241;BME280;6687;47.790;7.322;2023-01-28T07:50:10;99676.19;;;1.30;89.70
13241;BME280;6687;47.790;7.322;2023-01-28T07:52:37;99682.31;;;0.99;89.82
13241;BME280;6687;47.790;7.322;2023-01-28T07:55:10;99681.13;;;1.27;89.64
13241;BME280;6687;47.790;7.322;2023-01-28T07:57:47;99681.31;;;1.14;89.56
13241;BME280;6687;47.790;7.322;2023-01-28T08:00:14;99684.63;;;1.46;89.21
13241;BME280;6687;47.790;7.322;2023-01-28T08:02:41;99688.72;;;1.09;89.27
13241;BME280;6687;47.790;7.322;2023-01-28T08:05:09;99689.13;;;1.33;89.22
13241;BME280;6687;47.790;7.322;2023-01-28T08:07:36;99689.38;;;1.56;88.92
13241;BME280;6687;47.790;7.322;2023-01-28T08:10:03;99701.94;;;1.35;89.20
13241;BME280;6687;47.790;7.322;2023-01-28T08:12:31;99698.47;;;1.51;89.71
13241;BME280;6687;47.790;7.322;2023-01-28T08:14:58;99707.72;;;1.49;88.71
13241;BME280;6687;47.790;7.322;2023-01-28T08:17:25;99701.81;;;1.32;89.26
13241;BME280;6687;47.790;7.322;2023-01-28T08:19:53;99709.00;;;1.06;90.00
13241;BME280;6687;47.790;7.322;2023-01-28T08:22:23;99706.97;;;1.17;90.86
13241;BME280;6687;47.790;7.322;2023-01-28T08:24:50;99711.75;;;1.44;89.39
13241;BME280;6687;47.790;7.322;2023-01-28T08:27:17;99706.47;;;1.41;89.87
13241;BME280;6687;47.790;7.322;2023-01-28T08:29:45;99709.19;;;1.27;89.75
13241;BME280;6687;47.790;7.322;2023-01-28T08:32:12;99709.19;;;1.27;89.69
13241;BME280;6687;47.790;7.322;2023-01-28T08:34:38;99712.56;;;1.26;89.92
13241;BME280;6687;47.790;7.322;2023-01-28T08:37:05;99713.22;;;1.22;89.76
13241;BME280;6687;47.790;7.322;2023-01-28T08:39:32;99715.34;;;1.31;90.70
13241;BME280;6687;47.790;7.322;2023-01-28T08:41:59;99720.72;;;1.35;90.40
13241;BME280;6687;47.790;7.322;2023-01-28T08:44:25;99727.06;;;1.27;90.47
13241;BME280;6687;47.790;7.322;2023-01-28T08:46:54;99729.97;;;1.33;90.84
13241;BME280;6687;47.790;7.322;2023-01-28T08:49:20;99724.34;;;1.41;91.00
13241;BME280;6687;47.790;7.322;2023-01-28T08:51:47;99726.25;;;1.45;91.43
13241;BME280;6687;47.790;7.322;2023-01-28T08:54:14;99734.28;;;1.18;91.38
13241;BME280;6687;47.790;7.322;2023-01-28T08:56:41;99732.50;;;1.50;91.41
13241;BME280;6687;47.790;7.322;2023-01-28T08:59:09;99736.50;;;1.28;91.87
13241;BME280;6687;47.790;7.322;2023-01-28T09:01:36;99733.84;;;1.43;91.48
13241;BME280;6687;47.790;7.322;2023-01-28T09:04:04;99735.94;;;1.34;91.81
13241;BME280;6687;47.790;7.322;2023-01-28T09:06:31;99736.00;;;1.52;91.55
13241;BME280;6687;47.790;7.322;2023-01-28T09:08:58;99746.22;;;1.52;91.78
13241;BME280;6687;47.790;7.322;2023-01-28T09:11:25;99736.13;;;1.55;91.74
13241;BME280;6687;47.790;7.322;2023-01-28T09:13:52;99742.66;;;1.66;91.98
13241;BME280;6687;47.790;7.322;2023-01-28T09:16:19;99745.09;;;1.47;91.88
13241;BME280;6687;47.790;7.322;2023-01-28T09:18:46;99750.66;;;1.56;92.16
13241;BME280;6687;47.790;7.322;2023-01-28T09:21:15;99752.75;;;1.47;92.08
13241;BME280;6687;47.790;7.322;2023-01-28T09:23:41;99743.50;;;1.32;92.98
13241;BME280;6687;47.790;7.322;2023-01-28T09:26:09;99744.69;;;1.55;93.46
13241;BME280;6687;47.790;7.322;2023-01-28T09:28:36;99746.03;;;1.49;93.17
13241;BME280;6687;47.790;7.322;2023-01-28T09:31:05;99747.81;;;1.50;93.33
13241;BME280;6687;47.790;7.322;2023-01-28T09:33:34;99737.59;;;1.50;93.08
13241;BME280;6687;47.790;7.322;2023-01-28T09:36:02;99743.63;;;1.68;94.16
13241;BME280;6687;47.790;7.322;2023-01-28T09:38:31;99748.47;;;1.80;93.54
13241;BME280;6687;47.790;7.322;2023-01-28T09:40:59;99741.72;;;1.64;93.25
13241;BME280;6687;47.790;7.322;2023-01-28T09:43:50;99743.75;;;1.53;93.33
13241;BME280;6687;47.790;7.322;2023-01-28T09:46:26;99747.00;;;1.67;92.76
13241;BME280;6687;47.790;7.322;2023-01-28T09:48:57;99737.38;;;1.79;92.12
13241;BME280;6687;47.790;7.322;2023-01-28T09:51:33;99754.69;;;1.69;91.94
13241;BME280;6687;47.790;7.322;2023-01-28T09:54:09;99748.53;;;1.82;91.91
13241;BME280;6687;47.790;7.322;2023-01-28T09:56:41;99745.13;;;1.99;91.39
13241;BME280;6687;47.790;7.322;2023-01-28T09:59:15;99742.63;;;2.01;91.16
13241;BME280;6687;47.790;7.322;2023-01-28T10:01:49;99748.66;;;1.85;91.20
13241;BME280;6687;47.790;7.322;2023-01-28T10:04:31;99740.97;;;2.01;90.83
13241;BME280;6687;47.790;7.322;2023-01-28T10:07:14;99747.91;;;2.04;90.86
13241;BME280;6687;47.790;7.322;2023-01-28T10:09:49;99755.19;;;1.96;91.11
13241;BME280;6687;47.790;7.322;2023-01-28T10:12:31;99748.47;;;1.98;91.33
13241;BME280;6687;47.790;7.322;2023-01-28T10:15:17;99741.78;;;2.18;90.82
13241;BME280;6687;47.790;7.322;2023-01-28T10:17:48;99755.06;;;2.29;90.51
13241;BME280;6687;47.790;7.322;2023-01-28T10:20:19;99758.50;;;2.11;90.01
13241;BME280;6687;47.790;7.322;2023-01-28T10:22:51;99747.69;;;2.35;89.82
13241;BME280;6687;47.790;7.322;2023-01-28T10:25:21;99752.88;;;2.18;88.77
13241;BME280;6687;47.790;7.322;2023-01-28T10:27:50;99748.47;;;2.52;87.95
13241;BME280;6687;47.790;7.322;2023-01-28T10:30:18;99742.94;;;2.25;87.34
13241;BME280;6687;47.790;7.322;2023-01-28T10:32:50;99740.44;;;2.44;85.92
13241;BME280;6687;47.790;7.322;2023-01-28T10:35:17;99746.44;;;2.63;85.29
13241;BME280;6687;47.790;7.322;2023-01-28T10:37:44;99744.22;;;2.52;84.74
13241;BME280;6687;47.790;7.322;2023-01-28T10:40:14;99741.44;;;2.66;84.18
13241;BME280;6687;47.790;7.322;2023-01-28T10:42:43;99745.34;;;2.57;84.84
13241;BME280;6687;47.790;7.322;2023-01-28T10:45:17;99731.25;;;2.85;83.93
13241;BME280;6687;47.790;7.322;2023-01-28T10:47:49;99728.41;;;2.79;84.30
13241;BME280;6687;47.790;7.322;2023-01-28T10:50:21;99728.00;;;2.89;83.67
13241;BME280;6687;47.790;7.322;2023-01-28T10:52:55;99727.81;;;2.85;84.17
13241;BME280;6687;47.790;7.322;2023-01-28T10:55:26;99728.75;;;2.87;84.41
13241;BME280;6687;47.790;7.322;2023-01-28T10:57:55;99740.13;;;2.56;83.83
13241;BME280;6687;47.790;7.322;2023-01-28T11:00:25;99721.03;;;3.05;83.38
13241;BME280;6687;47.790;7.322;2023-01-28T11:02:53;99731.69;;;2.76;83.56
13241;BME280;6687;47.790;7.322;2023-01-28T11:05:21;99736.13;;;2.98;83.05
13241;BME280;6687;47.790;7.322;2023-01-28T11:08:02;99734.34;;;3.17;82.91
13241;BME280;6687;47.790;7.322;2023-01-28T11:10:31;99722.69;;;3.24;83.33
13241;BME280;6687;47.790;7.322;2023-01-28T11:13:01;99729.16;;;3.15;83.05
13241;BME280;6687;47.790;7.322;2023-01-28T11:15:29;99729.22;;;3.36;82.41
13241;BME280;6687;47.790;7.322;2023-01-28T11:17:58;99718.84;;;3.33;82.54
13241;BME280;6687;47.790;7.322;2023-01-28T11:20:28;99728.13;;;2.92;81.47
13241;BME280;6687;47.790;7.322;2023-01-28T11:22:56;99732.25;;;3.08;80.71
13241;BME280;6687;47.790;7.322;2023-01-28T11:25:28;99727.19;;;3.29;80.76
13241;BME280;6687;47.790;7.322;2023-01-28T11:27:56;99726.94;;;3.43;79.21
13241;BME280;6687;47.790;7.322;2023-01-28T11:30:27;99724.63;;;3.49;79.77
13241;BME280;6687;47.790;7.322;2023-01-28T11:33:01;99717.50;;;3.22;78.77
13241;BME280;6687;47.790;7.322;2023-01-28T11:35:30;99728.41;;;3.78;79.72
13241;BME280;6687;47.790;7.322;2023-01-28T11:37:58;99720.88;;;3.41;78.97
13241;BME280;6687;47.790;7.322;2023-01-28T11:40:25;99726.94;;;3.23;76.99
13241;BME280;6687;47.790;7.322;2023-01-28T11:42:53;99725.31;;;3.45;75.86
13241;BME280;6687;47.790;7.322;2023-01-28T11:45:31;99726.00;;;3.21;73.87
13241;BME280;6687;47.790;7.322;2023-01-28T11:48:17;99717.47;;;3.42;73.17
13241;BME280;6687;47.790;7.322;2023-01-28T11:50:52;99722.84;;;3.48;72.13
13241;BME280;6687;47.790;7.322;2023-01-28T11:53:35;99726.50;;;3.53;71.58
13241;BME280;6687;47.790;7.322;2023-01-28T11:56:23;99720.25;;;3.67;71.72
13241;BME280;6687;47.790;7.322;2023-01-28T11:59:02;99716.38;;;3.56;70.83
13241;BME280;6687;47.790;7.322;2023-01-28T12:01:39;99711.63;;;3.65;71.58
13241;BME280;6687;47.790;7.322;2023-01-28T12:04:24;99717.00;;;3.71;71.09
13241;BME280;6687;47.790;7.322;2023-01-28T12:07:11;99715.63;;;3.79;69.26
13241;BME280;6687;47.790;7.322;2023-01-28T12:09:48;99718.47;;;4.07;71.17
13241;BME280;6687;47.790;7.322;2023-01-28T12:12:51;99713.50;;;3.69;69.49
13241;BME280;6687;47.790;7.322;2023-01-28T12:15:49;99704.69;;;3.84;66.55
13241;BME280;6687;47.790;7.322;2023-01-28T12:18:31;99705.13;;;4.15;67.13
13241;BME280;6687;47.790;7.322;2023-01-28T12:21:05;99711.47;;;4.25;65.98
13241;BME280;6687;47.790;7.322;2023-01-28T12:23:40;99714.72;;;4.42;66.24
13241;BME280;6687;47.790;7.322;2023-01-28T12:26:17;99708.69;;;4.42;69.05
13241;BME280;6687;47.790;7.322;2023-01-28T12:28:56;99708.75;;;4.21;66.82
13241;BME280;6687;47.790;7.322;2023-01-28T12:31:39;99716.06;;;4.32;64.71
13241;BME280;6687;47.790;7.322;2023-01-28T12:34:30;99713.88;;;4.21;68.78
13241;BME280;6687;47.790;7.322;2023-01-28T12:37:06;99720.16;;;4.06;71.54
13241;BME280;6687;47.790;7.322;2023-01-28T12:39:49;99700.34;;;4.25;71.70
13241;BME280;6687;47.790;7.322;2023-01-28T12:42:26;99714.53;;;4.60;72.31
13241;BME280;6687;47.790;7.322;2023-01-28T12:45:01;99711.31;;;4.21;72.81
13241;BME280;6687;47.790;7.322;2023-01-28T12:47:33;99716.03;;;4.55;72.09
13241;BME280;6687;47.790;7.322;2023-01-28T12:50:09;99709.44;;;4.16;72.31
13241;BME280;6687;47.790;7.322;2023-01-28T12:52:43;99705.78;;;4.55;73.24
13241;BME280;6687;47.790;7.322;2023-01-28T12:55:15;99708.06;;;4.25;71.44
13241;BME280;6687;47.790;7.322;2023-01-28T12:57:44;99710.47;;;4.22;70.75
13241;BME280;6687;47.790;7.322;2023-01-28T13:00:20;99715.44;;;4.39;71.20
13241;BME280;6687;47.790;7.322;2023-01-28T13:02:52;99706.88;;;4.16;71.58
13241;BME280;6687;47.790;7.322;2023-01-28T13:05:27;99717.94;;;4.83;71.38
13241;BME280;6687;47.790;7.322;2023-01-28T13:08:01;99709.78;;;4.26;72.41
13241;BME280;6687;47.790;7.322;2023-01-28T13:10:36;99714.59;;;4.84;72.25
13241;BME280;6687;47.790;7.322;2023-01-28T13:13:04;99718.09;;;4.86;73.02
13241;BME280;6687;47.790;7.322;2023-01-28T13:15:35;99715.97;;;4.53;70.99
13241;BME280;6687;47.790;7.322;2023-01-28T13:18:05;99706.75;;;4.81;70.71
13241;BME280;6687;47.790;7.322;2023-01-28T13:20:45;99717.97;;;4.38;69.35
13241;BME280;6687;47.790;7.322;2023-01-28T13:23:23;99716.13;;;4.34;69.01
13241;BME280;6687;47.790;7.322;2023-01-28T13:25:51;99719.03;;;4.66;71.61
13241;BME280;6687;47.790;7.322;2023-01-28T13:28:26;99714.19;;;4.51;70.60
13241;BME280;6687;47.790;7.322;2023-01-28T13:31:00;99717.97;;;4.38;71.14
13241;BME280;6687;47.790;7.322;2023-01-28T13:33:30;99718.16;;;4.22;73.43
13241;BME280;6687;47.790;7.322;2023-01-28T13:36:02;99717.63;;;4.08;72.37
13241;BME280;6687;47.790;7.322;2023-01-28T13:38:30;99713.63;;;3.93;71.91
13241;BME280;6687;47.790;7.322;2023-01-28T13:40:59;99713.03;;;4.22;72.59
13241;BME280;6687;47.790;7.322;2023-01-28T13:43:36;99726.06;;;4.05;73.12
13241;BME280;6687;47.790;7.322;2023-01-28T13:46:05;99719.66;;;3.94;73.69
13241;BME280;6687;47.790;7.322;2023-01-28T13:48:39;99722.75;;;4.08;73.78
13241;BME280;6687;47.790;7.322;2023-01-28T13:51:16;99720.19;;;4.08;74.83
13241;BME280;6687;47.790;7.322;2023-01-28T13:53:47;99723.28;;;3.99;74.41
13241;BME280;6687;47.790;7.322;2023-01-28T13:56:21;99730.72;;;3.93;75.75
13241;BME280;6687;47.790;7.322;2023-01-28T13:59:02;99729.28;;;3.78;76.00
13241;BME280;6687;47.790;7.322;2023-01-28T14:02:15;99733.28;;;3.93;76.27
13241;BME280;6687;47.790;7.322;2023-01-28T14:04:59;99726.97;;;3.85;76.39
13241;BME280;6687;47.790;7.322;2023-01-28T14:10:30;99738.47;;;3.94;76.89
13241;BME280;6687;47.790;7.322;2023-01-28T14:16:22;99733.25;;;3.72;77.35
13241;BME280;6687;47.790;7.322;2023-01-28T14:18:52;99740.53;;;3.82;77.66
13241;BME280;6687;47.790;7.322;2023-01-28T14:21:22;99743.66;;;3.75;78.52
13241;BME280;6687;47.790;7.322;2023-01-28T14:23:52;99742.31;;;3.64;77.96
13241;BME280;6687;47.790;7.322;2023-01-28T14:26:26;99743.63;;;3.54;78.31
13241;BME280;6687;47.790;7.322;2023-01-28T14:29:09;99741.28;;;3.79;78.75
13241;BME280;6687;47.790;7.322;2023-01-28T14:31:39;99753.97;;;3.97;78.58
13241;BME280;6687;47.790;7.322;2023-01-28T14:34:11;99756.19;;;3.88;78.66
13241;BME280;6687;47.790;7.322;2023-01-28T14:36:43;99755.09;;;3.83;78.59
13241;BME280;6687;47.790;7.322;2023-01-28T14:39:16;99761.78;;;3.79;79.02
13241;BME280;6687;47.790;7.322;2023-01-28T14:41:46;99755.63;;;3.55;78.89
13241;BME280;6687;47.790;7.322;2023-01-28T14:44:29;99765.53;;;3.67;79.94
13241;BME280;6687;47.790;7.322;2023-01-28T14:47:24;99765.13;;;3.57;80.58
13241;BME280;6687;47.790;7.322;2023-01-28T14:50:17;99767.84;;;3.41;79.95
13241;BME280;6687;47.790;7.322;2023-01-28T14:52:54;99775.34;;;3.36;80.96
13241;BME280;6687;47.790;7.322;2023-01-28T14:55:33;99772.41;;;3.89;80.83
13241;BME280;6687;47.790;7.322;2023-01-28T14:58:04;99779.75;;;3.60;80.58
13241;BME280;6687;47.790;7.322;2023-01-28T15:00:33;99777.16;;;3.79;81.63
13241;BME280;6687;47.790;7.322;2023-01-28T15:03:08;99776.94;;;3.34;80.76
13241;BME280;6687;47.790;7.322;2023-01-28T15:05:37;99784.81;;;3.39;81.60
13241;BME280;6687;47.790;7.322;2023-01-28T15:08:04;99780.28;;;3.72;81.31
13241;BME280;6687;47.790;7.322;2023-01-28T15:10:35;99780.38;;;3.54;81.94
13241;BME280;6687;47.790;7.322;2023-01-28T15:13:05;99781.81;;;3.28;82.20
13241;BME280;6687;47.790;7.322;2023-01-28T15:15:35;99790.00;;;3.21;82.76
13241;BME280;6687;47.790;7.322;2023-01-28T15:18:05;99789.66;;;3.13;82.74
13241;BME280;6687;47.790;7.322;2023-01-28T15:20:33;99796.75;;;3.19;82.78
13241;BME280;6687;47.790;7.322;2023-01-28T15:23:01;99804.84;;;3.28;83.06
13241;BME280;6687;47.790;7.322;2023-01-28T15:25:29;99807.53;;;3.31;82.63
13241;BME280;6687;47.790;7.322;2023-01-28T15:27:59;99811.69;;;3.10;82.70
13241;BME280;6687;47.790;7.322;2023-01-28T15:30:28;99821.53;;;3.01;83.58
13241;BME280;6687;47.790;7.322;2023-01-28T15:33:00;99822.56;;;3.43;83.79
13241;BME280;6687;47.790;7.322;2023-01-28T15:35:30;99816.91;;;3.31;83.01
13241;BME280;6687;47.790;7.322;2023-01-28T15:37:57;99839.63;;;3.23;83.50
13241;BME280;6687;47.790;7.322;2023-01-28T15:40:24;99838.09;;;3.46;83.15
13241;BME280;6687;47.790;7.322;2023-01-28T15:42:53;99841.69;;;3.12;83.35
13241;BME280;6687;47.790;7.322;2023-01-28T15:45:24;99847.75;;;3.14;84.02
13241;BME280;6687;47.790;7.322;2023-01-28T15:48:01;99848.97;;;2.85;84.84
13241;BME280;6687;47.790;7.322;2023-01-28T15:50:29;99855.22;;;3.10;84.52
13241;BME280;6687;47.790;7.322;2023-01-28T15:52:56;99855.47;;;2.78;85.54
13241;BME280;6687;47.790;7.322;2023-01-28T15:55:31;99867.16;;;2.91;84.92
13241;BME280;6687;47.790;7.322;2023-01-28T15:58:14;99866.50;;;2.77;85.51
13241;BME280;6687;47.790;7.322;2023-01-28T16:00:43;99868.91;;;2.92;85.79
13241;BME280;6687;47.790;7.322;2023-01-28T16:03:17;99873.13;;;3.10;85.67
13241;BME280;6687;47.790;7.322;2023-01-28T16:05:54;99873.31;;;2.95;85.48
13241;BME280;6687;47.790;7.322;2023-01-28T16:08:26;99884.03;;;3.06;85.85
13241;BME280;6687;47.790;7.322;2023-01-28T16:10:54;99876.38;;;2.88;85.84
13241;BME280;6687;47.790;7.322;2023-01-28T16:13:24;99878.72;;;2.83;86.30
13241;BME280;6687;47.790;7.322;2023-01-28T16:15:54;99880.63;;;2.87;86.12
13241;BME280;6687;47.790;7.322;2023-01-28T16:18:29;99890.31;;;2.76;86.96
13241;BME280;6687;47.790;7.322;2023-01-28T16:20:57;99885.88;;;2.90;86.28
13241;BME280;6687;47.790;7.322;2023-01-28T16:23:27;99889.25;;;2.89;85.95
13241;BME280;6687;47.790;7.322;2023-01-28T16:25:58;99896.25;;;3.11;86.64
13241;BME280;6687;47.790;7.322;2023-01-28T16:28:25;99895.78;;;2.83;86.48
13241;BME280;6687;47.790;7.322;2023-01-28T16:30:55;99906.94;;;2.67;86.88
13241;BME280;6687;47.790;7.322;2023-01-28T16:33:22;99908.69;;;2.86;88.55
13241;BME280;6687;47.790;7.322;2023-01-28T16:35:49;99910.47;;;2.69;87.93
13241;BME280;6687;47.790;7.322;2023-01-28T16:38:16;99909.34;;;2.64;87.91
13241;BME280;6687;47.790;7.322;2023-01-28T16:40:44;99909.53;;;2.50;88.65
13241;BME280;6687;47.790;7.322;2023-01-28T16:43:13;99905.19;;;2.84;87.77
13241;BME280;6687;47.790;7.322;2023-01-28T16:45:40;99907.94;;;2.70;88.21
13241;BME280;6687;47.790;7.322;2023-01-28T16:48:09;99914.69;;;2.86;88.12
13241;BME280;6687;47.790;7.322;2023-01-28T16:50:38;99914.09;;;2.74;88.39
13241;BME280;6687;47.790;7.322;2023-01-28T16:53:14;99908.19;;;2.75;87.69
13241;BME280;6687;47.790;7.322;2023-01-28T16:55:42;99918.34;;;2.73;89.10
13241;BME280;6687;47.790;7.322;2023-01-28T16:58:09;99919.28;;;2.57;89.54
13241;BME280;6687;47.790;7.322;2023-01-28T17:00:36;99919.50;;;2.80;88.80
13241;BME280;6687;47.790;7.322;2023-01-28T17:03:04;99918.91;;;2.68;89.98
13241;BME280;6687;47.790;7.322;2023-01-28T17:05:32;99915.41;;;2.66;89.21
13241;BME280;6687;47.790;7.322;2023-01-28T17:07:59;99916.88;;;2.78;89.14
13241;BME280;6687;47.790;7.322;2023-01-28T17:10:26;99921.34;;;2.65;89.27
13241;BME280;6687;47.790;7.322;2023-01-28T17:12:52;99915.94;;;2.42;89.79
13241;BME280;6687;47.790;7.322;2023-01-28T17:15:19;99929.59;;;2.59;89.96
13241;BME280;6687;47.790;7.322;2023-01-28T17:17:47;99938.09;;;2.42;90.66
13241;BME280;6687;47.790;7.322;2023-01-28T17:20:15;99938.31;;;2.63;89.99
13241;BME280;6687;47.790;7.322;2023-01-28T17:22:43;99932.81;;;2.55;89.97
13241;BME280;6687;47.790;7.322;2023-01-28T17:25:10;99936.44;;;2.26;90.78
13241;BME280;6687;47.790;7.322;2023-01-28T17:27:38;99935.25;;;2.35;91.20
13241;BME280;6687;47.790;7.322;2023-01-28T17:30:06;99937.97;;;2.56;91.69
13241;BME280;6687;47.790;7.322;2023-01-28T17:32:33;99940.28;;;2.34;91.54
13241;BME280;6687;47.790;7.322;2023-01-28T17:35:00;99927.66;;;2.37;91.09
13241;BME280;6687;47.790;7.322;2023-01-28T17:37:27;99932.84;;;2.56;90.31
13241;BME280;6687;47.790;7.322;2023-01-28T17:39:55;99942.41;;;2.43;90.89
13241;BME280;6687;47.790;7.322;2023-01-28T17:42:22;99944.25;;;2.45;91.11
13241;BME280;6687;47.790;7.322;2023-01-28T17:44:48;99949.72;;;2.35;90.78
13241;BME280;6687;47.790;7.322;2023-01-28T17:47:15;99952.56;;;2.41;91.25
13241;BME280;6687;47.790;7.322;2023-01-28T17:49:42;99951.66;;;2.57;90.57
13241;BME280;6687;47.790;7.322;2023-01-28T17:52:09;99943.94;;;2.23;90.80
13241;BME280;6687;47.790;7.322;2023-01-28T17:54:35;99943.13;;;2.40;91.40
13241;BME280;6687;47.790;7.322;2023-01-28T17:57:04;99958.25;;;2.35;91.42
13241;BME280;6687;47.790;7.322;2023-01-28T17:59:30;99963.16;;;2.31;90.97
13241;BME280;6687;47.790;7.322;2023-01-28T18:01:57;99965.50;;;2.44;90.54
13241;BME280;6687;47.790;7.322;2023-01-28T18:04:24;99960.81;;;2.35;91.00
13241;BME280;6687;47.790;7.322;2023-01-28T18:06:51;99972.09;;;2.39;90.25
13241;BME280;6687;47.790;7.322;2023-01-28T18:09:17;99964.50;;;2.58;89.94
13241;BME280;6687;47.790;7.322;2023-01-28T18:11:44;99965.38;;;2.41;89.51
13241;BME280;6687;47.790;7.322;2023-01-28T18:14:13;99968.25;;;2.31;90.00
13241;BME280;6687;47.790;7.322;2023-01-28T18:16:40;99962.38;;;2.50;90.38
13241;BME280;6687;47.790;7.322;2023-01-28T18:19:06;99969.31;;;2.52;89.61
13241;BME280;6687;47.790;7.322;2023-01-28T18:21:36;99970.72;;;2.29;89.53
13241;BME280;6687;47.790;7.322;2023-01-28T18:24:04;99979.91;;;2.26;90.23
13241;BME280;6687;47.790;7.322;2023-01-28T18:26:31;99969.50;;;2.55;90.18
13241;BME280;6687;47.790;7.322;2023-01-28T18:28:58;99973.50;;;2.34;89.63
13241;BME280;6687;47.790;7.322;2023-01-28T18:31:27;99979.50;;;2.34;89.70
13241;BME280;6687;47.790;7.322;2023-01-28T18:33:54;99980.38;;;2.51;89.40
13241;BME280;6687;47.790;7.322;2023-01-28T18:36:21;99983.19;;;2.39;90.17
13241;BME280;6687;47.790;7.322;2023-01-28T18:38:48;99985.66;;;2.38;89.65
13241;BME280;6687;47.790;7.322;2023-01-28T18:41:15;99981.66;;;2.10;90.03
13241;BME280;6687;47.790;7.322;2023-01-28T18:43:42;99989.03;;;2.04;90.15
13241;BME280;6687;47.790;7.322;2023-01-28T18:46:11;99989.66;;;2.33;90.00
13241;BME280;6687;47.790;7.322;2023-01-28T18:48:40;99981.94;;;2.66;88.39
13241;BME280;6687;47.790;7.322;2023-01-28T18:51:07;99983.75;;;2.17;89.36
13241;BME280;6687;47.790;7.322;2023-01-28T18:53:33;99980.88;;;2.11;89.73
13241;BME280;6687;47.790;7.322;2023-01-28T18:56:01;99982.44;;;2.42;89.12
13241;BME280;6687;47.790;7.322;2023-01-28T18:58:28;99982.56;;;2.27;89.59
13241;BME280;6687;47.790;7.322;2023-01-28T19:00:55;99985.81;;;2.08;89.21
13241;BME280;6687;47.790;7.322;2023-01-28T19:03:22;99976.22;;;2.53;89.58
13241;BME280;6687;47.790;7.322;2023-01-28T19:05:50;99989.34;;;2.43;88.52
13241;BME280;6687;47.790;7.322;2023-01-28T19:08:17;99981.34;;;2.21;88.67
13241;BME280;6687;47.790;7.322;2023-01-28T19:10:44;99985.34;;;2.32;88.37
13241;BME280;6687;47.790;7.322;2023-01-28T19:13:10;99985.66;;;2.38;88.21
13241;BME280;6687;47.790;7.322;2023-01-28T19:15:37;99986.56;;;2.56;88.12
13241;BME280;6687;47.790;7.322;2023-01-28T19:18:04;99984.41;;;2.13;88.28
13241;BME280;6687;47.790;7.322;2023-01-28T19:20:31;99982.00;;;2.33;88.02
13241;BME280;6687;47.790;7.322;2023-01-28T19:22:59;99982.81;;;2.15;88.09
13241;BME280;6687;47.790;7.322;2023-01-28T19:25:25;99977.41;;;2.44;87.98
13241;BME280;6687;47.790;7.322;2023-01-28T19:27:52;99989.97;;;2.39;87.37
13241;BME280;6687;47.790;7.322;2023-01-28T19:30:20;99991.13;;;2.11;88.54
13241;BME280;6687;47.790;7.322;2023-01-28T19:32:46;99978.09;;;2.23;88.10
13241;BME280;6687;47.790;7.322;2023-01-28T19:35:13;99984.16;;;2.25;87.67
13241;BME280;6687;47.790;7.322;2023-01-28T19:37:40;99985.34;;;2.32;88.37
13241;BME280;6687;47.790;7.322;2023-01-28T19:40:10;99982.31;;;2.06;88.22
13241;BME280;6687;47.790;7.322;2023-01-28T19:42:37;99977.19;;;2.39;87.41
13241;BME280;6687;47.790;7.322;2023-01-28T19:45:04;99980.53;;;2.38;87.33
13241;BME280;6687;47.790;7.322;2023-01-28T19:47:31;99979.91;;;2.26;87.27
13241;BME280;6687;47.790;7.322;2023-01-28T19:49:58;99986.59;;;2.40;87.32
13241;BME280;6687;47.790;7.322;2023-01-28T19:52:24;99981.66;;;2.27;87.47
13241;BME280;6687;47.790;7.322;2023-01-28T19:54:51;99985.91;;;2.26;87.37
13241;BME280;6687;47.790;7.322;2023-01-28T19:57:19;99994.78;;;2.33;87.64